sensor_id;sensor_type;location;lat;lon;timestamp;P1;durP1;ratioP1;P2;durP2;ratioP2
51382;SDS011;37475;43.358;1.248;2023-08-17T00:01:51;19.42;;;13.10;;
51382;SDS011;37475;43.358;1.248;2023-08-17T00:04:17;21.23;;;14.43;;
51382;SDS011;37475;43.358;1.248;2023-08-17T00:06:42;18.45;;;15.35;;
51382;SDS011;37475;43.358;1.248;2023-08-17T00:09:09;25.30;;;15.50;;
51382;SDS011;37475;43.358;1.248;2023-08-17T00:11:35;21.80;;;15.23;;
51382;SDS011;37475;43.358;1.248;2023-08-17T00:14:01;19.70;;;15.13;;
51382;SDS011;37475;43.358;1.248;2023-08-17T00:16:27;19.10;;;16.05;;
51382;SDS011;37475;43.358;1.248;2023-08-17T00:18:53;19.50;;;15.02;;
51382;SDS011;37475;43.358;1.248;2023-08-17T00:21:19;17.38;;;14.68;;
51382;SDS011;37475;43.358;1.248;2023-08-17T00:23:44;23.38;;;15.73;;
51382;SDS011;37475;43.358;1.248;2023-08-17T00:26:10;20.25;;;15.05;;
51382;SDS011;37475;43.358;1.248;2023-08-17T00:28:36;19.42;;;15.55;;
51382;SDS011;37475;43.358;1.248;2023-08-17T00:31:02;22.33;;;16.45;;
51382;SDS011;37475;43.358;1.248;2023-08-17T00:33:28;19.23;;;15.88;;
51382;SDS011;37475;43.358;1.248;2023-08-17T00:35:54;20.15;;;15.57;;
51382;SDS011;37475;43.358;1.248;2023-08-17T00:38:20;21.48;;;15.52;;
51382;SDS011;37475;43.358;1.248;2023-08-17T00:40:46;25.10;;;16.33;;
51382;SDS011;37475;43.358;1.248;2023-08-17T00:43:12;22.10;;;17.15;;
51382;SDS011;37475;43.358;1.248;2023-08-17T00:45:38;23.35;;;17.05;;
51382;SDS011;37475;43.358;1.248;2023-08-17T00:48:05;22.10;;;17.05;;
51382;SDS011;37475;43.358;1.248;2023-08-17T00:50:33;22.27;;;16.70;;
51382;SDS011;37475;43.358;1.248;2023-08-17T00:53:00;24.60;;;17.73;;
51382;SDS011;37475;43.358;1.248;2023-08-17T00:55:26;22.25;;;16.70;;
51382;SDS011;37475;43.358;1.248;2023-08-17T00:57:53;24.33;;;17.35;;
51382;SDS011;37475;43.358;1.248;2023-08-17T01:00:21;20.75;;;16.73;;
51382;SDS011;37475;43.358;1.248;2023-08-17T01:02:49;21.48;;;17.08;;
51382;SDS011;37475;43.358;1.248;2023-08-17T01:05:16;20.00;;;16.90;;
51382;SDS011;37475;43.358;1.248;2023-08-17T01:07:42;24.13;;;17.52;;
51382;SDS011;37475;43.358;1.248;2023-08-17T01:10:08;26.70;;;17.85;;
51382;SDS011;37475;43.358;1.248;2023-08-17T01:12:38;24.88;;;18.65;;
51382;SDS011;37475;43.358;1.248;2023-08-17T01:15:36;23.25;;;17.75;;
51382;SDS011;37475;43.358;1.248;2023-08-17T01:21:00;23.95;;;18.55;;
51382;SDS011;37475;43.358;1.248;2023-08-17T01:23:30;26.15;;;18.70;;
51382;SDS011;37475;43.358;1.248;2023-08-17T01:25:56;23.42;;;18.08;;
51382;SDS011;37475;43.358;1.248;2023-08-17T01:28:22;22.55;;;17.60;;
51382;SDS011;37475;43.358;1.248;2023-08-17T01:31:03;27.45;;;19.10;;
51382;SDS011;37475;43.358;1.248;2023-08-17T01:38:45;26.42;;;17.30;;
51382;SDS011;37475;43.358;1.248;2023-08-17T01:41:13;21.25;;;16.45;;
51382;SDS011;37475;43.358;1.248;2023-08-17T01:43:43;33.25;;;17.98;;
51382;SDS011;37475;43.358;1.248;2023-08-17T01:46:16;22.42;;;15.82;;
51382;SDS011;37475;43.358;1.248;2023-08-17T01:48:43;21.45;;;15.90;;
51382;SDS011;37475;43.358;1.248;2023-08-17T01:51:11;32.30;;;18.25;;
51382;SDS011;37475;43.358;1.248;2023-08-17T01:56:09;25.75;;;15.82;;
51382;SDS011;37475;43.358;1.248;2023-08-17T01:58:35;24.35;;;17.88;;
51382;SDS011;37475;43.358;1.248;2023-08-17T02:01:01;22.75;;;15.85;;
51382;SDS011;37475;43.358;1.248;2023-08-17T02:03:26;19.13;;;14.75;;
51382;SDS011;37475;43.358;1.248;2023-08-17T02:05:55;21.45;;;16.23;;
51382;SDS011;37475;43.358;1.248;2023-08-17T02:08:21;22.20;;;16.40;;
51382;SDS011;37475;43.358;1.248;2023-08-17T02:10:47;22.98;;;15.50;;
51382;SDS011;37475;43.358;1.248;2023-08-17T02:13:14;22.05;;;15.30;;
51382;SDS011;37475;43.358;1.248;2023-08-17T02:15:41;21.08;;;16.00;;
51382;SDS011;37475;43.358;1.248;2023-08-17T02:18:07;18.42;;;14.63;;
51382;SDS011;37475;43.358;1.248;2023-08-17T02:20:33;22.33;;;15.35;;
51382;SDS011;37475;43.358;1.248;2023-08-17T02:23:00;23.92;;;16.02;;
51382;SDS011;37475;43.358;1.248;2023-08-17T02:25:26;22.65;;;16.33;;
51382;SDS011;37475;43.358;1.248;2023-08-17T02:27:59;20.92;;;14.40;;
51382;SDS011;37475;43.358;1.248;2023-08-17T02:30:25;19.90;;;14.02;;
51382;SDS011;37475;43.358;1.248;2023-08-17T02:32:51;18.38;;;14.55;;
51382;SDS011;37475;43.358;1.248;2023-08-17T02:35:17;18.38;;;13.63;;
51382;SDS011;37475;43.358;1.248;2023-08-17T02:37:43;17.40;;;14.40;;
51382;SDS011;37475;43.358;1.248;2023-08-17T02:40:09;20.65;;;14.35;;
51382;SDS011;37475;43.358;1.248;2023-08-17T02:42:35;18.90;;;13.45;;
51382;SDS011;37475;43.358;1.248;2023-08-17T02:45:01;18.25;;;13.50;;
51382;SDS011;37475;43.358;1.248;2023-08-17T02:47:27;20.92;;;14.75;;
51382;SDS011;37475;43.358;1.248;2023-08-17T02:49:53;18.10;;;11.27;;
51382;SDS011;37475;43.358;1.248;2023-08-17T02:52:18;16.48;;;11.13;;
51382;SDS011;37475;43.358;1.248;2023-08-17T02:54:44;38.80;;;11.52;;
51382;SDS011;37475;43.358;1.248;2023-08-17T02:57:10;160.60;;;14.88;;
51382;SDS011;37475;43.358;1.248;2023-08-17T02:59:37;22.00;;;14.93;;
51382;SDS011;37475;43.358;1.248;2023-08-17T03:02:03;19.35;;;14.52;;
51382;SDS011;37475;43.358;1.248;2023-08-17T03:04:29;19.98;;;15.15;;
51382;SDS011;37475;43.358;1.248;2023-08-17T03:06:55;17.25;;;13.77;;
51382;SDS011;37475;43.358;1.248;2023-08-17T03:09:20;18.40;;;13.77;;
51382;SDS011;37475;43.358;1.248;2023-08-17T03:11:46;15.02;;;11.98;;
51382;SDS011;37475;43.358;1.248;2023-08-17T03:14:12;17.13;;;12.85;;
51382;SDS011;37475;43.358;1.248;2023-08-17T03:16:38;19.15;;;13.00;;
51382;SDS011;37475;43.358;1.248;2023-08-17T03:19:03;25.15;;;13.48;;
51382;SDS011;37475;43.358;1.248;2023-08-17T03:21:30;39.40;;;14.20;;
51382;SDS011;37475;43.358;1.248;2023-08-17T03:23:55;19.20;;;12.15;;
51382;SDS011;37475;43.358;1.248;2023-08-17T03:26:21;20.02;;;12.52;;
51382;SDS011;37475;43.358;1.248;2023-08-17T03:28:47;19.10;;;12.00;;
51382;SDS011;37475;43.358;1.248;2023-08-17T03:31:13;16.52;;;12.02;;
51382;SDS011;37475;43.358;1.248;2023-08-17T03:33:38;16.77;;;11.43;;
51382;SDS011;37475;43.358;1.248;2023-08-17T03:36:05;18.50;;;11.82;;
51382;SDS011;37475;43.358;1.248;2023-08-17T03:38:31;17.38;;;12.15;;
51382;SDS011;37475;43.358;1.248;2023-08-17T03:40:57;23.15;;;12.07;;
51382;SDS011;37475;43.358;1.248;2023-08-17T03:43:23;21.80;;;13.63;;
51382;SDS011;37475;43.358;1.248;2023-08-17T03:45:50;20.50;;;12.27;;
51382;SDS011;37475;43.358;1.248;2023-08-17T03:48:16;18.98;;;12.15;;
51382;SDS011;37475;43.358;1.248;2023-08-17T03:50:41;14.85;;;11.23;;
51382;SDS011;37475;43.358;1.248;2023-08-17T03:53:08;17.42;;;11.45;;
51382;SDS011;37475;43.358;1.248;2023-08-17T03:55:33;17.30;;;11.15;;
51382;SDS011;37475;43.358;1.248;2023-08-17T03:57:59;19.45;;;11.02;;
51382;SDS011;37475;43.358;1.248;2023-08-17T04:00:25;19.17;;;11.27;;
51382;SDS011;37475;43.358;1.248;2023-08-17T04:02:51;35.25;;;17.60;;
51382;SDS011;37475;43.358;1.248;2023-08-17T04:05:16;22.98;;;12.70;;
51382;SDS011;37475;43.358;1.248;2023-08-17T04:07:42;23.92;;;13.82;;
51382;SDS011;37475;43.358;1.248;2023-08-17T04:10:08;19.20;;;12.63;;
51382;SDS011;37475;43.358;1.248;2023-08-17T04:12:34;19.55;;;12.30;;
51382;SDS011;37475;43.358;1.248;2023-08-17T04:15:00;15.95;;;11.70;;
51382;SDS011;37475;43.358;1.248;2023-08-17T04:17:25;22.23;;;11.38;;
51382;SDS011;37475;43.358;1.248;2023-08-17T04:19:51;21.95;;;10.82;;
51382;SDS011;37475;43.358;1.248;2023-08-17T04:22:17;18.27;;;8.93;;
51382;SDS011;37475;43.358;1.248;2023-08-17T04:24:43;14.25;;;8.73;;
51382;SDS011;37475;43.358;1.248;2023-08-17T04:27:09;19.83;;;8.55;;
51382;SDS011;37475;43.358;1.248;2023-08-17T04:29:35;12.95;;;8.23;;
51382;SDS011;37475;43.358;1.248;2023-08-17T04:32:03;14.55;;;7.68;;
51382;SDS011;37475;43.358;1.248;2023-08-17T04:34:29;18.20;;;7.90;;
51382;SDS011;37475;43.358;1.248;2023-08-17T04:36:54;13.73;;;7.53;;
51382;SDS011;37475;43.358;1.248;2023-08-17T04:39:20;10.20;;;7.00;;
51382;SDS011;37475;43.358;1.248;2023-08-17T04:41:46;12.98;;;7.13;;
51382;SDS011;37475;43.358;1.248;2023-08-17T04:44:12;14.57;;;6.68;;
51382;SDS011;37475;43.358;1.248;2023-08-17T04:46:38;14.95;;;7.40;;
51382;SDS011;37475;43.358;1.248;2023-08-17T04:49:04;17.15;;;7.30;;
51382;SDS011;37475;43.358;1.248;2023-08-17T04:51:30;13.40;;;6.90;;
51382;SDS011;37475;43.358;1.248;2023-08-17T04:53:56;11.27;;;6.82;;
51382;SDS011;37475;43.358;1.248;2023-08-17T04:56:22;14.15;;;6.82;;
51382;SDS011;37475;43.358;1.248;2023-08-17T04:58:47;12.15;;;7.20;;
51382;SDS011;37475;43.358;1.248;2023-08-17T05:01:13;14.63;;;7.00;;
51382;SDS011;37475;43.358;1.248;2023-08-17T05:03:39;14.88;;;7.15;;
51382;SDS011;37475;43.358;1.248;2023-08-17T05:06:05;16.67;;;7.13;;
51382;SDS011;37475;43.358;1.248;2023-08-17T05:08:31;16.08;;;7.57;;
51382;SDS011;37475;43.358;1.248;2023-08-17T05:10:57;13.95;;;6.95;;
51382;SDS011;37475;43.358;1.248;2023-08-17T05:13:22;14.43;;;7.45;;
51382;SDS011;37475;43.358;1.248;2023-08-17T05:15:48;15.05;;;7.13;;
51382;SDS011;37475;43.358;1.248;2023-08-17T05:18:14;13.77;;;7.28;;
51382;SDS011;37475;43.358;1.248;2023-08-17T05:20:40;12.57;;;7.60;;
51382;SDS011;37475;43.358;1.248;2023-08-17T05:23:06;13.00;;;7.88;;
51382;SDS011;37475;43.358;1.248;2023-08-17T05:25:32;14.27;;;7.85;;
51382;SDS011;37475;43.358;1.248;2023-08-17T05:27:58;15.18;;;7.97;;
51382;SDS011;37475;43.358;1.248;2023-08-17T05:30:24;16.20;;;8.10;;
51382;SDS011;37475;43.358;1.248;2023-08-17T05:32:50;16.35;;;8.30;;
51382;SDS011;37475;43.358;1.248;2023-08-17T05:35:16;14.90;;;8.43;;
51382;SDS011;37475;43.358;1.248;2023-08-17T05:37:42;14.93;;;7.97;;
51382;SDS011;37475;43.358;1.248;2023-08-17T05:40:08;14.55;;;8.23;;
51382;SDS011;37475;43.358;1.248;2023-08-17T05:42:34;13.73;;;7.88;;
51382;SDS011;37475;43.358;1.248;2023-08-17T05:45:00;16.45;;;8.40;;
51382;SDS011;37475;43.358;1.248;2023-08-17T05:47:26;14.75;;;7.68;;
51382;SDS011;37475;43.358;1.248;2023-08-17T05:49:52;15.77;;;8.38;;
51382;SDS011;37475;43.358;1.248;2023-08-17T05:52:17;15.23;;;7.82;;
51382;SDS011;37475;43.358;1.248;2023-08-17T05:54:43;17.23;;;8.07;;
51382;SDS011;37475;43.358;1.248;2023-08-17T05:57:09;13.55;;;8.20;;
51382;SDS011;37475;43.358;1.248;2023-08-17T05:59:35;16.80;;;7.97;;
51382;SDS011;37475;43.358;1.248;2023-08-17T06:02:01;13.77;;;8.70;;
51382;SDS011;37475;43.358;1.248;2023-08-17T06:04:27;19.13;;;8.27;;
51382;SDS011;37475;43.358;1.248;2023-08-17T06:06:52;15.50;;;8.05;;
51382;SDS011;37475;43.358;1.248;2023-08-17T06:09:18;15.48;;;8.65;;
51382;SDS011;37475;43.358;1.248;2023-08-17T06:11:44;17.63;;;8.73;;
51382;SDS011;37475;43.358;1.248;2023-08-17T06:14:10;13.68;;;9.02;;
51382;SDS011;37475;43.358;1.248;2023-08-17T06:16:36;16.75;;;9.35;;
51382;SDS011;37475;43.358;1.248;2023-08-17T06:19:01;17.25;;;9.75;;
51382;SDS011;37475;43.358;1.248;2023-08-17T06:21:27;14.02;;;9.00;;
51382;SDS011;37475;43.358;1.248;2023-08-17T06:23:53;14.05;;;9.13;;
51382;SDS011;37475;43.358;1.248;2023-08-17T06:26:19;19.50;;;9.65;;
51382;SDS011;37475;43.358;1.248;2023-08-17T06:28:44;14.82;;;9.57;;
51382;SDS011;37475;43.358;1.248;2023-08-17T06:31:10;17.88;;;9.68;;
51382;SDS011;37475;43.358;1.248;2023-08-17T06:33:40;18.10;;;9.13;;
51382;SDS011;37475;43.358;1.248;2023-08-17T06:36:06;20.75;;;9.90;;
51382;SDS011;37475;43.358;1.248;2023-08-17T06:38:31;16.45;;;9.68;;
51382;SDS011;37475;43.358;1.248;2023-08-17T06:40:57;21.63;;;10.25;;
51382;SDS011;37475;43.358;1.248;2023-08-17T06:43:23;17.98;;;9.65;;
51382;SDS011;37475;43.358;1.248;2023-08-17T06:45:49;19.25;;;9.85;;
51382;SDS011;37475;43.358;1.248;2023-08-17T06:48:14;17.42;;;10.73;;
51382;SDS011;37475;43.358;1.248;2023-08-17T06:50:40;20.33;;;11.15;;
51382;SDS011;37475;43.358;1.248;2023-08-17T06:53:06;21.65;;;11.68;;
51382;SDS011;37475;43.358;1.248;2023-08-17T06:55:32;20.83;;;11.32;;
51382;SDS011;37475;43.358;1.248;2023-08-17T06:57:58;20.77;;;12.18;;
51382;SDS011;37475;43.358;1.248;2023-08-17T07:00:24;19.05;;;11.75;;
51382;SDS011;37475;43.358;1.248;2023-08-17T07:02:50;19.83;;;11.82;;
51382;SDS011;37475;43.358;1.248;2023-08-17T07:05:16;20.20;;;10.85;;
51382;SDS011;37475;43.358;1.248;2023-08-17T07:07:43;17.38;;;10.45;;
51382;SDS011;37475;43.358;1.248;2023-08-17T07:10:09;22.38;;;11.40;;
51382;SDS011;37475;43.358;1.248;2023-08-17T07:12:39;20.58;;;11.32;;
51382;SDS011;37475;43.358;1.248;2023-08-17T07:15:05;22.75;;;12.43;;
51382;SDS011;37475;43.358;1.248;2023-08-17T07:17:32;19.77;;;11.75;;
51382;SDS011;37475;43.358;1.248;2023-08-17T07:20:04;27.30;;;12.68;;
51382;SDS011;37475;43.358;1.248;2023-08-17T07:22:32;20.25;;;11.88;;
51382;SDS011;37475;43.358;1.248;2023-08-17T07:24:58;19.70;;;11.88;;
51382;SDS011;37475;43.358;1.248;2023-08-17T07:27:24;20.67;;;11.75;;
51382;SDS011;37475;43.358;1.248;2023-08-17T07:29:50;23.27;;;12.25;;
51382;SDS011;37475;43.358;1.248;2023-08-17T07:32:16;22.33;;;11.50;;
51382;SDS011;37475;43.358;1.248;2023-08-17T07:34:42;23.67;;;11.77;;
51382;SDS011;37475;43.358;1.248;2023-08-17T07:37:08;23.35;;;11.60;;
51382;SDS011;37475;43.358;1.248;2023-08-17T07:39:35;24.35;;;12.15;;
51382;SDS011;37475;43.358;1.248;2023-08-17T07:42:00;18.98;;;12.35;;
51382;SDS011;37475;43.358;1.248;2023-08-17T07:44:26;20.27;;;11.70;;
51382;SDS011;37475;43.358;1.248;2023-08-17T07:46:53;18.73;;;11.73;;
51382;SDS011;37475;43.358;1.248;2023-08-17T07:49:19;19.83;;;10.65;;
51382;SDS011;37475;43.358;1.248;2023-08-17T07:51:48;19.30;;;11.07;;
51382;SDS011;37475;43.358;1.248;2023-08-17T07:54:14;21.48;;;11.48;;
51382;SDS011;37475;43.358;1.248;2023-08-17T07:56:39;16.95;;;10.95;;
51382;SDS011;37475;43.358;1.248;2023-08-17T07:59:05;15.43;;;10.43;;
51382;SDS011;37475;43.358;1.248;2023-08-17T08:01:31;18.50;;;10.40;;
51382;SDS011;37475;43.358;1.248;2023-08-17T08:03:57;12.63;;;9.40;;
51382;SDS011;37475;43.358;1.248;2023-08-17T08:06:23;14.82;;;9.80;;
51382;SDS011;37475;43.358;1.248;2023-08-17T08:08:49;17.70;;;10.18;;
51382;SDS011;37475;43.358;1.248;2023-08-17T08:11:14;14.23;;;10.23;;
51382;SDS011;37475;43.358;1.248;2023-08-17T08:13:40;16.83;;;10.60;;
51382;SDS011;37475;43.358;1.248;2023-08-17T08:16:06;18.42;;;10.43;;
51382;SDS011;37475;43.358;1.248;2023-08-17T08:18:32;18.73;;;10.52;;
51382;SDS011;37475;43.358;1.248;2023-08-17T08:20:57;21.05;;;10.80;;
51382;SDS011;37475;43.358;1.248;2023-08-17T08:23:23;21.30;;;11.90;;
51382;SDS011;37475;43.358;1.248;2023-08-17T08:25:49;18.00;;;10.80;;
51382;SDS011;37475;43.358;1.248;2023-08-17T08:28:14;18.40;;;10.98;;
51382;SDS011;37475;43.358;1.248;2023-08-17T08:30:40;21.30;;;11.15;;
51382;SDS011;37475;43.358;1.248;2023-08-17T08:33:06;20.25;;;10.57;;
51382;SDS011;37475;43.358;1.248;2023-08-17T08:35:32;20.02;;;11.05;;
51382;SDS011;37475;43.358;1.248;2023-08-17T08:37:58;17.00;;;10.38;;
51382;SDS011;37475;43.358;1.248;2023-08-17T08:40:28;24.08;;;11.75;;
51382;SDS011;37475;43.358;1.248;2023-08-17T08:42:56;23.63;;;11.13;;
51382;SDS011;37475;43.358;1.248;2023-08-17T08:45:22;18.45;;;10.85;;
51382;SDS011;37475;43.358;1.248;2023-08-17T08:47:49;20.13;;;10.95;;
51382;SDS011;37475;43.358;1.248;2023-08-17T08:50:20;20.08;;;10.18;;
51382;SDS011;37475;43.358;1.248;2023-08-17T08:53:00;17.60;;;10.48;;
51382;SDS011;37475;43.358;1.248;2023-08-17T08:55:33;17.48;;;10.25;;
51382;SDS011;37475;43.358;1.248;2023-08-17T08:58:02;19.90;;;10.80;;
51382;SDS011;37475;43.358;1.248;2023-08-17T09:00:30;21.27;;;11.15;;
51382;SDS011;37475;43.358;1.248;2023-08-17T09:02:56;18.73;;;10.05;;
51382;SDS011;37475;43.358;1.248;2023-08-17T09:05:24;16.70;;;9.82;;
51382;SDS011;37475;43.358;1.248;2023-08-17T09:07:50;20.25;;;9.77;;
51382;SDS011;37475;43.358;1.248;2023-08-17T09:10:17;16.10;;;8.77;;
51382;SDS011;37475;43.358;1.248;2023-08-17T09:12:45;19.23;;;9.02;;
51382;SDS011;37475;43.358;1.248;2023-08-17T09:15:12;18.02;;;9.40;;
51382;SDS011;37475;43.358;1.248;2023-08-17T09:17:38;18.42;;;9.88;;
51382;SDS011;37475;43.358;1.248;2023-08-17T09:20:04;16.48;;;10.30;;
51382;SDS011;37475;43.358;1.248;2023-08-17T09:22:42;17.88;;;9.68;;
51382;SDS011;37475;43.358;1.248;2023-08-17T09:25:09;17.05;;;8.70;;
51382;SDS011;37475;43.358;1.248;2023-08-17T09:27:36;18.88;;;8.40;;
51382;SDS011;37475;43.358;1.248;2023-08-17T09:30:07;12.98;;;8.77;;
51382;SDS011;37475;43.358;1.248;2023-08-17T09:35:02;13.75;;;8.85;;
51382;SDS011;37475;43.358;1.248;2023-08-17T09:37:30;17.70;;;8.15;;
51382;SDS011;37475;43.358;1.248;2023-08-17T09:39:57;11.65;;;7.47;;
51382;SDS011;37475;43.358;1.248;2023-08-17T09:42:23;18.60;;;8.35;;
51382;SDS011;37475;43.358;1.248;2023-08-17T09:44:51;14.30;;;7.80;;
51382;SDS011;37475;43.358;1.248;2023-08-17T09:47:17;16.02;;;7.82;;
51382;SDS011;37475;43.358;1.248;2023-08-17T09:49:49;15.00;;;7.90;;
51382;SDS011;37475;43.358;1.248;2023-08-17T09:52:18;14.15;;;7.90;;
51382;SDS011;37475;43.358;1.248;2023-08-17T09:54:46;14.57;;;7.32;;
51382;SDS011;37475;43.358;1.248;2023-08-17T09:57:15;12.27;;;7.85;;
51382;SDS011;37475;43.358;1.248;2023-08-17T09:59:42;15.27;;;7.93;;
51382;SDS011;37475;43.358;1.248;2023-08-17T10:02:18;16.38;;;7.90;;
51382;SDS011;37475;43.358;1.248;2023-08-17T10:04:52;14.05;;;6.75;;
51382;SDS011;37475;43.358;1.248;2023-08-17T10:07:19;13.55;;;7.43;;
51382;SDS011;37475;43.358;1.248;2023-08-17T10:09:53;13.18;;;6.80;;
51382;SDS011;37475;43.358;1.248;2023-08-17T10:12:29;9.10;;;6.55;;
51382;SDS011;37475;43.358;1.248;2023-08-17T10:15:15;11.35;;;7.38;;
51382;SDS011;37475;43.358;1.248;2023-08-17T10:17:45;14.35;;;6.95;;
51382;SDS011;37475;43.358;1.248;2023-08-17T10:20:39;10.57;;;6.80;;
51382;SDS011;37475;43.358;1.248;2023-08-17T10:23:17;10.25;;;7.15;;
51382;SDS011;37475;43.358;1.248;2023-08-17T10:25:47;11.43;;;7.20;;
51382;SDS011;37475;43.358;1.248;2023-08-17T10:28:16;10.55;;;7.22;;
51382;SDS011;37475;43.358;1.248;2023-08-17T10:30:42;10.25;;;7.22;;
51382;SDS011;37475;43.358;1.248;2023-08-17T10:33:08;12.15;;;7.10;;
51382;SDS011;37475;43.358;1.248;2023-08-17T10:35:35;10.40;;;7.25;;
51382;SDS011;37475;43.358;1.248;2023-08-17T10:38:02;12.82;;;7.43;;
51382;SDS011;37475;43.358;1.248;2023-08-17T10:40:34;11.23;;;7.20;;
51382;SDS011;37475;43.358;1.248;2023-08-17T10:43:01;8.60;;;6.70;;
51382;SDS011;37475;43.358;1.248;2023-08-17T10:45:28;9.52;;;7.03;;
51382;SDS011;37475;43.358;1.248;2023-08-17T10:50:38;11.82;;;6.97;;
51382;SDS011;37475;43.358;1.248;2023-08-17T10:53:08;9.27;;;6.63;;
51382;SDS011;37475;43.358;1.248;2023-08-17T10:55:36;13.95;;;7.25;;
51382;SDS011;37475;43.358;1.248;2023-08-17T10:58:04;9.18;;;6.70;;
51382;SDS011;37475;43.358;1.248;2023-08-17T11:00:33;8.32;;;6.95;;
51382;SDS011;37475;43.358;1.248;2023-08-17T11:03:08;9.98;;;6.78;;
51382;SDS011;37475;43.358;1.248;2023-08-17T11:11:21;8.50;;;5.93;;
51382;SDS011;37475;43.358;1.248;2023-08-17T11:13:48;8.65;;;5.95;;
51382;SDS011;37475;43.358;1.248;2023-08-17T11:16:15;10.23;;;5.97;;
51382;SDS011;37475;43.358;1.248;2023-08-17T11:18:44;9.35;;;6.15;;
51382;SDS011;37475;43.358;1.248;2023-08-17T11:21:11;7.30;;;5.82;;
51382;SDS011;37475;43.358;1.248;2023-08-17T11:23:39;10.95;;;5.95;;
51382;SDS011;37475;43.358;1.248;2023-08-17T11:26:06;7.07;;;5.53;;
51382;SDS011;37475;43.358;1.248;2023-08-17T11:28:33;10.18;;;6.03;;
51382;SDS011;37475;43.358;1.248;2023-08-17T11:33:34;6.65;;;5.35;;
51382;SDS011;37475;43.358;1.248;2023-08-17T11:36:03;6.90;;;4.97;;
51382;SDS011;37475;43.358;1.248;2023-08-17T11:38:38;6.45;;;4.32;;
51382;SDS011;37475;43.358;1.248;2023-08-17T11:41:06;7.40;;;4.78;;
51382;SDS011;37475;43.358;1.248;2023-08-17T11:43:35;6.25;;;4.32;;
51382;SDS011;37475;43.358;1.248;2023-08-17T11:46:01;6.22;;;3.88;;
51382;SDS011;37475;43.358;1.248;2023-08-17T11:48:28;9.52;;;4.75;;
51382;SDS011;37475;43.358;1.248;2023-08-17T11:50:54;13.02;;;4.65;;
51382;SDS011;37475;43.358;1.248;2023-08-17T11:53:20;6.43;;;4.32;;
51382;SDS011;37475;43.358;1.248;2023-08-17T11:55:46;7.60;;;4.30;;
51382;SDS011;37475;43.358;1.248;2023-08-17T11:58:12;6.30;;;4.10;;
51382;SDS011;37475;43.358;1.248;2023-08-17T12:00:42;7.00;;;4.43;;
51382;SDS011;37475;43.358;1.248;2023-08-17T12:03:12;6.38;;;4.03;;
51382;SDS011;37475;43.358;1.248;2023-08-17T12:05:41;6.78;;;3.88;;
51382;SDS011;37475;43.358;1.248;2023-08-17T12:08:10;6.68;;;3.80;;
51382;SDS011;37475;43.358;1.248;2023-08-17T12:10:38;6.68;;;3.92;;
51382;SDS011;37475;43.358;1.248;2023-08-17T12:13:04;6.78;;;3.67;;
51382;SDS011;37475;43.358;1.248;2023-08-17T12:15:30;5.45;;;3.63;;
51382;SDS011;37475;43.358;1.248;2023-08-17T12:17:59;7.25;;;3.30;;
51382;SDS011;37475;43.358;1.248;2023-08-17T12:20:26;7.25;;;3.67;;
51382;SDS011;37475;43.358;1.248;2023-08-17T12:22:53;6.20;;;3.40;;
51382;SDS011;37475;43.358;1.248;2023-08-17T12:25:21;6.90;;;3.35;;
51382;SDS011;37475;43.358;1.248;2023-08-17T12:27:48;5.88;;;3.60;;
51382;SDS011;37475;43.358;1.248;2023-08-17T12:30:16;5.90;;;3.55;;
51382;SDS011;37475;43.358;1.248;2023-08-17T12:32:58;8.18;;;3.53;;
51382;SDS011;37475;43.358;1.248;2023-08-17T12:35:24;6.25;;;3.70;;
51382;SDS011;37475;43.358;1.248;2023-08-17T12:37:51;5.32;;;3.58;;
51382;SDS011;37475;43.358;1.248;2023-08-17T12:40:18;6.10;;;3.35;;
51382;SDS011;37475;43.358;1.248;2023-08-17T12:42:44;5.68;;;3.58;;
51382;SDS011;37475;43.358;1.248;2023-08-17T12:45:10;5.75;;;3.13;;
51382;SDS011;37475;43.358;1.248;2023-08-17T12:47:36;3.92;;;3.25;;
51382;SDS011;37475;43.358;1.248;2023-08-17T12:50:03;6.10;;;3.45;;
51382;SDS011;37475;43.358;1.248;2023-08-17T12:52:29;4.85;;;3.08;;
51382;SDS011;37475;43.358;1.248;2023-08-17T12:54:55;7.38;;;3.63;;
51382;SDS011;37475;43.358;1.248;2023-08-17T12:57:21;5.45;;;3.50;;
51382;SDS011;37475;43.358;1.248;2023-08-17T12:59:47;4.90;;;3.03;;
51382;SDS011;37475;43.358;1.248;2023-08-17T13:02:12;6.75;;;3.65;;
51382;SDS011;37475;43.358;1.248;2023-08-17T13:04:39;7.00;;;3.65;;
51382;SDS011;37475;43.358;1.248;2023-08-17T13:07:06;5.35;;;3.38;;
51382;SDS011;37475;43.358;1.248;2023-08-17T13:09:31;8.23;;;3.00;;
51382;SDS011;37475;43.358;1.248;2023-08-17T13:11:57;6.50;;;3.35;;
51382;SDS011;37475;43.358;1.248;2023-08-17T13:14:23;6.93;;;3.50;;
51382;SDS011;37475;43.358;1.248;2023-08-17T13:16:50;7.22;;;3.25;;
51382;SDS011;37475;43.358;1.248;2023-08-17T13:19:15;5.47;;;3.22;;
51382;SDS011;37475;43.358;1.248;2023-08-17T13:21:41;7.65;;;3.25;;
51382;SDS011;37475;43.358;1.248;2023-08-17T13:24:07;5.75;;;3.10;;
51382;SDS011;37475;43.358;1.248;2023-08-17T13:26:33;4.88;;;3.10;;
51382;SDS011;37475;43.358;1.248;2023-08-17T13:28:59;8.10;;;3.00;;
51382;SDS011;37475;43.358;1.248;2023-08-17T13:31:25;7.30;;;3.35;;
51382;SDS011;37475;43.358;1.248;2023-08-17T13:33:51;8.10;;;3.10;;
51382;SDS011;37475;43.358;1.248;2023-08-17T13:36:17;7.38;;;3.05;;
51382;SDS011;37475;43.358;1.248;2023-08-17T13:38:44;7.85;;;3.30;;
51382;SDS011;37475;43.358;1.248;2023-08-17T13:41:10;6.90;;;3.22;;
51382;SDS011;37475;43.358;1.248;2023-08-17T13:43:37;9.13;;;3.00;;
51382;SDS011;37475;43.358;1.248;2023-08-17T13:46:03;6.07;;;3.47;;
51382;SDS011;37475;43.358;1.248;2023-08-17T13:48:29;6.90;;;2.97;;
51382;SDS011;37475;43.358;1.248;2023-08-17T13:50:55;7.15;;;3.38;;
51382;SDS011;37475;43.358;1.248;2023-08-17T13:53:21;7.20;;;3.33;;
51382;SDS011;37475;43.358;1.248;2023-08-17T13:55:47;6.78;;;2.92;;
51382;SDS011;37475;43.358;1.248;2023-08-17T13:58:13;7.28;;;3.80;;
51382;SDS011;37475;43.358;1.248;2023-08-17T14:00:40;5.75;;;3.42;;
51382;SDS011;37475;43.358;1.248;2023-08-17T14:03:06;8.40;;;3.20;;
51382;SDS011;37475;43.358;1.248;2023-08-17T14:05:32;5.75;;;3.20;;
51382;SDS011;37475;43.358;1.248;2023-08-17T14:07:58;6.85;;;3.10;;
51382;SDS011;37475;43.358;1.248;2023-08-17T14:10:24;7.55;;;3.13;;
51382;SDS011;37475;43.358;1.248;2023-08-17T14:12:50;4.78;;;3.03;;
51382;SDS011;37475;43.358;1.248;2023-08-17T14:15:16;6.43;;;3.17;;
51382;SDS011;37475;43.358;1.248;2023-08-17T14:17:42;7.40;;;2.92;;
51382;SDS011;37475;43.358;1.248;2023-08-17T14:20:08;12.52;;;3.67;;
51382;SDS011;37475;43.358;1.248;2023-08-17T14:22:34;6.88;;;3.53;;
51382;SDS011;37475;43.358;1.248;2023-08-17T14:25:00;10.73;;;3.88;;
51382;SDS011;37475;43.358;1.248;2023-08-17T14:27:26;10.32;;;3.28;;
51382;SDS011;37475;43.358;1.248;2023-08-17T14:29:51;5.80;;;3.38;;
51382;SDS011;37475;43.358;1.248;2023-08-17T14:32:17;6.25;;;3.38;;
51382;SDS011;37475;43.358;1.248;2023-08-17T14:34:43;5.38;;;3.13;;
51382;SDS011;37475;43.358;1.248;2023-08-17T14:37:09;7.18;;;3.10;;
51382;SDS011;37475;43.358;1.248;2023-08-17T14:39:34;6.00;;;3.30;;
51382;SDS011;37475;43.358;1.248;2023-08-17T14:42:00;5.95;;;3.33;;
51382;SDS011;37475;43.358;1.248;2023-08-17T14:44:26;5.82;;;3.42;;
51382;SDS011;37475;43.358;1.248;2023-08-17T14:46:52;6.93;;;3.50;;
51382;SDS011;37475;43.358;1.248;2023-08-17T14:49:17;6.32;;;3.28;;
51382;SDS011;37475;43.358;1.248;2023-08-17T14:51:43;9.20;;;3.40;;
51382;SDS011;37475;43.358;1.248;2023-08-17T14:54:09;7.75;;;3.28;;